Terminal Aerodrome Forecast
Issued by NWS

Home | Current Version | Previous Version | Text Only | Print | Product List | Glossary On
Versions: 1 2 3 4 5 6 7 8 9 10 11 12 13 14 15 16 17 18 19 20 21
000
FTUS43 KGRR 020539
TAFAZO
TAF
KAZO 020539Z 0206/0306 02007KT 6SM -RA BR SCT008 OVC035
     FM020700 03007KT 5SM BR VCSH OVC006
     FM021400 03009KT P6SM OVC012
     FM021700 02010KT P6SM OVC025
     FM021900 05008KT P6SM BKN035=

USA.gov is the U.S. government's official web portal to all federal, state and local government web resources and services.